sensor_id;sensor_type;location;lat;lon;timestamp;P1;durP1;ratioP1;P2;durP2;ratioP2
59062;SDS011;44851;45.648;9.004;2023-07-13T00:01:44;8.00;;;4.63;;
59062;SDS011;44851;45.648;9.004;2023-07-13T00:04:11;5.83;;;4.33;;
59062;SDS011;44851;45.648;9.004;2023-07-13T00:06:38;6.20;;;4.07;;
59062;SDS011;44851;45.648;9.004;2023-07-13T00:09:03;4.50;;;3.87;;
59062;SDS011;44851;45.648;9.004;2023-07-13T00:11:29;7.33;;;4.60;;
59062;SDS011;44851;45.648;9.004;2023-07-13T00:13:55;5.90;;;4.37;;
59062;SDS011;44851;45.648;9.004;2023-07-13T00:16:20;5.73;;;4.40;;
59062;SDS011;44851;45.648;9.004;2023-07-13T00:18:46;5.47;;;4.40;;
59062;SDS011;44851;45.648;9.004;2023-07-13T00:21:12;5.83;;;3.87;;
59062;SDS011;44851;45.648;9.004;2023-07-13T00:23:39;6.90;;;4.70;;
59062;SDS011;44851;45.648;9.004;2023-07-13T00:26:06;5.97;;;3.97;;
59062;SDS011;44851;45.648;9.004;2023-07-13T00:28:34;5.43;;;3.93;;
59062;SDS011;44851;45.648;9.004;2023-07-13T00:31:00;7.77;;;4.37;;
59062;SDS011;44851;45.648;9.004;2023-07-13T00:33:27;7.67;;;4.30;;
59062;SDS011;44851;45.648;9.004;2023-07-13T00:35:54;7.17;;;4.20;;
59062;SDS011;44851;45.648;9.004;2023-07-13T00:38:19;8.00;;;4.60;;
59062;SDS011;44851;45.648;9.004;2023-07-13T00:40:45;9.23;;;4.20;;
59062;SDS011;44851;45.648;9.004;2023-07-13T00:43:12;6.67;;;4.20;;
59062;SDS011;44851;45.648;9.004;2023-07-13T00:48:12;5.13;;;4.43;;
59062;SDS011;44851;45.648;9.004;2023-07-13T00:50:42;7.53;;;4.97;;
59062;SDS011;44851;45.648;9.004;2023-07-13T00:53:09;7.47;;;4.70;;
59062;SDS011;44851;45.648;9.004;2023-07-13T00:55:36;5.37;;;4.57;;
59062;SDS011;44851;45.648;9.004;2023-07-13T00:58:03;5.33;;;4.70;;
59062;SDS011;44851;45.648;9.004;2023-07-13T01:00:31;6.23;;;4.30;;
59062;SDS011;44851;45.648;9.004;2023-07-13T01:02:59;6.63;;;5.13;;
59062;SDS011;44851;45.648;9.004;2023-07-13T01:05:29;7.00;;;4.67;;
59062;SDS011;44851;45.648;9.004;2023-07-13T01:07:56;6.00;;;4.60;;
59062;SDS011;44851;45.648;9.004;2023-07-13T01:10:23;6.50;;;4.70;;
59062;SDS011;44851;45.648;9.004;2023-07-13T01:12:50;6.00;;;4.43;;
59062;SDS011;44851;45.648;9.004;2023-07-13T01:18:08;5.43;;;4.60;;
59062;SDS011;44851;45.648;9.004;2023-07-13T01:20:36;6.87;;;4.67;;
59062;SDS011;44851;45.648;9.004;2023-07-13T01:23:06;6.30;;;4.60;;
59062;SDS011;44851;45.648;9.004;2023-07-13T01:25:34;6.90;;;4.63;;
59062;SDS011;44851;45.648;9.004;2023-07-13T01:28:00;5.57;;;5.00;;
59062;SDS011;44851;45.648;9.004;2023-07-13T01:30:26;5.37;;;4.47;;
59062;SDS011;44851;45.648;9.004;2023-07-13T01:32:52;6.57;;;5.20;;
59062;SDS011;44851;45.648;9.004;2023-07-13T01:35:17;7.03;;;4.77;;
59062;SDS011;44851;45.648;9.004;2023-07-13T01:37:43;10.53;;;5.13;;
59062;SDS011;44851;45.648;9.004;2023-07-13T01:40:10;7.87;;;5.20;;
59062;SDS011;44851;45.648;9.004;2023-07-13T01:42:37;5.57;;;4.93;;
59062;SDS011;44851;45.648;9.004;2023-07-13T01:45:03;9.40;;;5.33;;
59062;SDS011;44851;45.648;9.004;2023-07-13T01:47:29;5.90;;;5.30;;
59062;SDS011;44851;45.648;9.004;2023-07-13T01:49:56;6.50;;;5.03;;
59062;SDS011;44851;45.648;9.004;2023-07-13T01:52:22;5.43;;;4.67;;
59062;SDS011;44851;45.648;9.004;2023-07-13T01:54:48;5.43;;;4.93;;
59062;SDS011;44851;45.648;9.004;2023-07-13T01:57:13;7.40;;;5.93;;
59062;SDS011;44851;45.648;9.004;2023-07-13T01:59:39;10.37;;;5.83;;
59062;SDS011;44851;45.648;9.004;2023-07-13T02:02:04;10.70;;;6.10;;
59062;SDS011;44851;45.648;9.004;2023-07-13T02:04:30;6.83;;;5.57;;
59062;SDS011;44851;45.648;9.004;2023-07-13T02:06:55;7.17;;;5.70;;
59062;SDS011;44851;45.648;9.004;2023-07-13T02:09:21;7.90;;;5.90;;
59062;SDS011;44851;45.648;9.004;2023-07-13T02:11:46;9.53;;;5.73;;
59062;SDS011;44851;45.648;9.004;2023-07-13T02:14:11;9.97;;;5.83;;
59062;SDS011;44851;45.648;9.004;2023-07-13T02:16:37;6.20;;;5.00;;
59062;SDS011;44851;45.648;9.004;2023-07-13T02:19:02;6.07;;;4.70;;
59062;SDS011;44851;45.648;9.004;2023-07-13T02:21:28;7.73;;;5.97;;
59062;SDS011;44851;45.648;9.004;2023-07-13T02:23:54;7.70;;;5.23;;
59062;SDS011;44851;45.648;9.004;2023-07-13T02:26:19;6.33;;;5.23;;
59062;SDS011;44851;45.648;9.004;2023-07-13T02:28:45;5.43;;;4.93;;
59062;SDS011;44851;45.648;9.004;2023-07-13T02:31:11;7.97;;;5.70;;
59062;SDS011;44851;45.648;9.004;2023-07-13T02:33:38;7.83;;;5.83;;
59062;SDS011;44851;45.648;9.004;2023-07-13T02:36:04;8.57;;;5.63;;
59062;SDS011;44851;45.648;9.004;2023-07-13T02:38:30;7.03;;;5.37;;
59062;SDS011;44851;45.648;9.004;2023-07-13T02:40:58;10.47;;;5.10;;
59062;SDS011;44851;45.648;9.004;2023-07-13T02:43:24;6.07;;;5.47;;
59062;SDS011;44851;45.648;9.004;2023-07-13T02:45:50;8.03;;;5.57;;
59062;SDS011;44851;45.648;9.004;2023-07-13T02:48:15;6.50;;;5.10;;
59062;SDS011;44851;45.648;9.004;2023-07-13T02:50:40;8.03;;;5.10;;
59062;SDS011;44851;45.648;9.004;2023-07-13T02:53:06;7.87;;;5.93;;
59062;SDS011;44851;45.648;9.004;2023-07-13T02:55:31;7.20;;;4.80;;
59062;SDS011;44851;45.648;9.004;2023-07-13T02:57:57;8.33;;;5.20;;
59062;SDS011;44851;45.648;9.004;2023-07-13T03:00:23;8.67;;;5.00;;
59062;SDS011;44851;45.648;9.004;2023-07-13T03:02:48;6.03;;;4.80;;
59062;SDS011;44851;45.648;9.004;2023-07-13T03:05:14;7.33;;;5.10;;
59062;SDS011;44851;45.648;9.004;2023-07-13T03:07:41;7.80;;;5.67;;
59062;SDS011;44851;45.648;9.004;2023-07-13T03:10:07;7.90;;;5.73;;
59062;SDS011;44851;45.648;9.004;2023-07-13T03:12:34;9.23;;;5.53;;
59062;SDS011;44851;45.648;9.004;2023-07-13T03:14:59;9.37;;;7.10;;
59062;SDS011;44851;45.648;9.004;2023-07-13T03:17:25;7.03;;;6.30;;
59062;SDS011;44851;45.648;9.004;2023-07-13T03:19:50;9.23;;;6.03;;
59062;SDS011;44851;45.648;9.004;2023-07-13T03:22:17;9.40;;;6.90;;
59062;SDS011;44851;45.648;9.004;2023-07-13T03:24:43;9.37;;;6.50;;
59062;SDS011;44851;45.648;9.004;2023-07-13T03:27:09;9.47;;;6.63;;
59062;SDS011;44851;45.648;9.004;2023-07-13T03:29:34;7.73;;;6.23;;
59062;SDS011;44851;45.648;9.004;2023-07-13T03:31:59;10.53;;;7.13;;
59062;SDS011;44851;45.648;9.004;2023-07-13T03:34:25;10.00;;;7.27;;
59062;SDS011;44851;45.648;9.004;2023-07-13T03:36:53;7.27;;;6.10;;
59062;SDS011;44851;45.648;9.004;2023-07-13T03:39:19;8.43;;;6.70;;
59062;SDS011;44851;45.648;9.004;2023-07-13T03:41:45;8.77;;;6.83;;
59062;SDS011;44851;45.648;9.004;2023-07-13T03:44:10;11.13;;;7.00;;
59062;SDS011;44851;45.648;9.004;2023-07-13T03:46:36;9.80;;;7.40;;
59062;SDS011;44851;45.648;9.004;2023-07-13T03:49:03;9.50;;;7.70;;
59062;SDS011;44851;45.648;9.004;2023-07-13T03:51:29;9.93;;;8.53;;
59062;SDS011;44851;45.648;9.004;2023-07-13T03:53:55;11.17;;;9.30;;
59062;SDS011;44851;45.648;9.004;2023-07-13T03:56:21;11.60;;;10.03;;
59062;SDS011;44851;45.648;9.004;2023-07-13T03:58:48;12.07;;;9.80;;
59062;SDS011;44851;45.648;9.004;2023-07-13T04:01:15;12.93;;;10.37;;
59062;SDS011;44851;45.648;9.004;2023-07-13T04:03:43;13.80;;;11.77;;
59062;SDS011;44851;45.648;9.004;2023-07-13T04:06:12;14.73;;;11.43;;
59062;SDS011;44851;45.648;9.004;2023-07-13T04:08:40;11.90;;;10.63;;
59062;SDS011;44851;45.648;9.004;2023-07-13T04:11:06;12.33;;;11.03;;
59062;SDS011;44851;45.648;9.004;2023-07-13T04:13:32;10.43;;;9.43;;
59062;SDS011;44851;45.648;9.004;2023-07-13T04:15:57;9.47;;;8.37;;
59062;SDS011;44851;45.648;9.004;2023-07-13T04:18:23;7.63;;;6.83;;
59062;SDS011;44851;45.648;9.004;2023-07-13T04:20:49;8.27;;;6.00;;
59062;SDS011;44851;45.648;9.004;2023-07-13T04:23:16;6.73;;;5.33;;
59062;SDS011;44851;45.648;9.004;2023-07-13T04:25:45;5.00;;;4.50;;
59062;SDS011;44851;45.648;9.004;2023-07-13T04:28:14;6.63;;;5.07;;
59062;SDS011;44851;45.648;9.004;2023-07-13T04:30:40;4.13;;;3.73;;
59062;SDS011;44851;45.648;9.004;2023-07-13T04:33:06;5.77;;;4.20;;
59062;SDS011;44851;45.648;9.004;2023-07-13T04:35:31;5.03;;;4.53;;
59062;SDS011;44851;45.648;9.004;2023-07-13T04:37:57;5.37;;;4.07;;
59062;SDS011;44851;45.648;9.004;2023-07-13T04:40:22;6.57;;;4.13;;
59062;SDS011;44851;45.648;9.004;2023-07-13T04:42:47;6.37;;;3.97;;
59062;SDS011;44851;45.648;9.004;2023-07-13T04:45:13;5.90;;;3.77;;
59062;SDS011;44851;45.648;9.004;2023-07-13T04:47:40;4.70;;;3.73;;
59062;SDS011;44851;45.648;9.004;2023-07-13T04:50:06;5.27;;;3.70;;
59062;SDS011;44851;45.648;9.004;2023-07-13T04:52:33;5.00;;;4.10;;
59062;SDS011;44851;45.648;9.004;2023-07-13T04:54:59;4.13;;;3.73;;
59062;SDS011;44851;45.648;9.004;2023-07-13T04:57:25;5.17;;;3.80;;
59062;SDS011;44851;45.648;9.004;2023-07-13T04:59:51;4.90;;;3.77;;
59062;SDS011;44851;45.648;9.004;2023-07-13T05:02:17;4.30;;;3.90;;
59062;SDS011;44851;45.648;9.004;2023-07-13T05:04:45;9.33;;;4.10;;
59062;SDS011;44851;45.648;9.004;2023-07-13T05:07:12;4.47;;;4.03;;
59062;SDS011;44851;45.648;9.004;2023-07-13T05:09:38;4.47;;;4.07;;
59062;SDS011;44851;45.648;9.004;2023-07-13T05:12:05;6.83;;;4.57;;
59062;SDS011;44851;45.648;9.004;2023-07-13T05:14:31;5.70;;;4.73;;
59062;SDS011;44851;45.648;9.004;2023-07-13T05:16:57;6.03;;;5.07;;
59062;SDS011;44851;45.648;9.004;2023-07-13T05:19:22;5.83;;;5.23;;
59062;SDS011;44851;45.648;9.004;2023-07-13T05:21:48;7.93;;;6.20;;
59062;SDS011;44851;45.648;9.004;2023-07-13T05:24:13;7.00;;;5.90;;
59062;SDS011;44851;45.648;9.004;2023-07-13T05:26:38;8.50;;;6.00;;
59062;SDS011;44851;45.648;9.004;2023-07-13T05:29:04;6.47;;;5.83;;
59062;SDS011;44851;45.648;9.004;2023-07-13T05:31:29;7.30;;;5.70;;
59062;SDS011;44851;45.648;9.004;2023-07-13T05:33:55;11.13;;;6.50;;
59062;SDS011;44851;45.648;9.004;2023-07-13T05:36:20;6.57;;;5.97;;
59062;SDS011;44851;45.648;9.004;2023-07-13T05:38:45;6.60;;;5.90;;
59062;SDS011;44851;45.648;9.004;2023-07-13T05:41:11;6.47;;;5.87;;
59062;SDS011;44851;45.648;9.004;2023-07-13T05:43:36;6.60;;;5.67;;
59062;SDS011;44851;45.648;9.004;2023-07-13T05:46:02;6.67;;;6.07;;
59062;SDS011;44851;45.648;9.004;2023-07-13T05:48:27;7.03;;;5.37;;
59062;SDS011;44851;45.648;9.004;2023-07-13T05:50:53;7.00;;;5.30;;
59062;SDS011;44851;45.648;9.004;2023-07-13T05:53:18;6.17;;;5.03;;
59062;SDS011;44851;45.648;9.004;2023-07-13T05:55:45;5.70;;;4.63;;
59062;SDS011;44851;45.648;9.004;2023-07-13T05:58:18;5.80;;;4.67;;
59062;SDS011;44851;45.648;9.004;2023-07-13T06:00:44;5.60;;;4.30;;
59062;SDS011;44851;45.648;9.004;2023-07-13T06:03:10;5.67;;;4.40;;
59062;SDS011;44851;45.648;9.004;2023-07-13T06:05:35;9.47;;;4.53;;
59062;SDS011;44851;45.648;9.004;2023-07-13T06:08:03;7.10;;;4.60;;
59062;SDS011;44851;45.648;9.004;2023-07-13T06:10:29;7.70;;;4.50;;
59062;SDS011;44851;45.648;9.004;2023-07-13T06:12:57;6.90;;;4.17;;
59062;SDS011;44851;45.648;9.004;2023-07-13T06:15:22;7.40;;;4.17;;
59062;SDS011;44851;45.648;9.004;2023-07-13T06:17:48;10.13;;;4.50;;
59062;SDS011;44851;45.648;9.004;2023-07-13T06:20:13;4.30;;;3.67;;
59062;SDS011;44851;45.648;9.004;2023-07-13T06:22:39;4.17;;;2.90;;
59062;SDS011;44851;45.648;9.004;2023-07-13T06:25:04;5.00;;;3.40;;
59062;SDS011;44851;45.648;9.004;2023-07-13T06:27:30;3.67;;;3.27;;
59062;SDS011;44851;45.648;9.004;2023-07-13T06:29:56;4.53;;;3.13;;
59062;SDS011;44851;45.648;9.004;2023-07-13T06:32:21;6.90;;;3.77;;
59062;SDS011;44851;45.648;9.004;2023-07-13T06:34:46;6.40;;;3.20;;
59062;SDS011;44851;45.648;9.004;2023-07-13T06:37:12;4.00;;;3.53;;
59062;SDS011;44851;45.648;9.004;2023-07-13T06:39:37;5.13;;;3.43;;
59062;SDS011;44851;45.648;9.004;2023-07-13T06:42:03;4.70;;;3.40;;
59062;SDS011;44851;45.648;9.004;2023-07-13T06:44:29;4.07;;;3.47;;
59062;SDS011;44851;45.648;9.004;2023-07-13T06:46:54;6.50;;;3.40;;
59062;SDS011;44851;45.648;9.004;2023-07-13T06:49:20;5.13;;;4.00;;
59062;SDS011;44851;45.648;9.004;2023-07-13T06:51:45;5.17;;;3.00;;
59062;SDS011;44851;45.648;9.004;2023-07-13T06:54:11;6.97;;;3.23;;
59062;SDS011;44851;45.648;9.004;2023-07-13T06:56:36;4.90;;;3.50;;
59062;SDS011;44851;45.648;9.004;2023-07-13T06:59:01;3.60;;;2.73;;
59062;SDS011;44851;45.648;9.004;2023-07-13T07:01:27;5.77;;;2.93;;
59062;SDS011;44851;45.648;9.004;2023-07-13T07:03:52;7.50;;;3.90;;
59062;SDS011;44851;45.648;9.004;2023-07-13T07:06:18;6.60;;;3.23;;
59062;SDS011;44851;45.648;9.004;2023-07-13T07:08:48;4.00;;;2.90;;
59062;SDS011;44851;45.648;9.004;2023-07-13T07:11:16;3.23;;;2.40;;
59062;SDS011;44851;45.648;9.004;2023-07-13T07:13:44;9.20;;;3.77;;
59062;SDS011;44851;45.648;9.004;2023-07-13T07:16:10;8.53;;;3.87;;
59062;SDS011;44851;45.648;9.004;2023-07-13T07:18:35;7.87;;;4.10;;
59062;SDS011;44851;45.648;9.004;2023-07-13T07:21:01;3.43;;;2.70;;
59062;SDS011;44851;45.648;9.004;2023-07-13T07:23:26;3.47;;;2.57;;
59062;SDS011;44851;45.648;9.004;2023-07-13T07:25:52;6.27;;;3.20;;
59062;SDS011;44851;45.648;9.004;2023-07-13T07:28:17;3.63;;;2.50;;
59062;SDS011;44851;45.648;9.004;2023-07-13T07:30:44;3.63;;;2.70;;
59062;SDS011;44851;45.648;9.004;2023-07-13T07:33:10;3.00;;;2.70;;
59062;SDS011;44851;45.648;9.004;2023-07-13T07:35:36;4.60;;;2.70;;
59062;SDS011;44851;45.648;9.004;2023-07-13T07:38:01;4.50;;;2.60;;
59062;SDS011;44851;45.648;9.004;2023-07-13T07:40:27;3.37;;;2.77;;
59062;SDS011;44851;45.648;9.004;2023-07-13T07:42:52;3.83;;;2.80;;
59062;SDS011;44851;45.648;9.004;2023-07-13T07:45:18;3.70;;;2.63;;
59062;SDS011;44851;45.648;9.004;2023-07-13T07:47:44;3.77;;;2.40;;
59062;SDS011;44851;45.648;9.004;2023-07-13T07:50:09;2.93;;;2.70;;
59062;SDS011;44851;45.648;9.004;2023-07-13T07:52:35;6.00;;;3.83;;
59062;SDS011;44851;45.648;9.004;2023-07-13T07:55:00;5.70;;;2.63;;
59062;SDS011;44851;45.648;9.004;2023-07-13T07:57:26;4.20;;;2.70;;
59062;SDS011;44851;45.648;9.004;2023-07-13T07:59:51;4.40;;;3.17;;
59062;SDS011;44851;45.648;9.004;2023-07-13T08:02:17;4.03;;;2.80;;
59062;SDS011;44851;45.648;9.004;2023-07-13T08:04:42;3.70;;;2.47;;
59062;SDS011;44851;45.648;9.004;2023-07-13T08:07:08;2.83;;;2.60;;
59062;SDS011;44851;45.648;9.004;2023-07-13T08:09:34;4.47;;;2.77;;
59062;SDS011;44851;45.648;9.004;2023-07-13T08:11:59;3.30;;;3.00;;
59062;SDS011;44851;45.648;9.004;2023-07-13T08:14:25;4.27;;;2.47;;
59062;SDS011;44851;45.648;9.004;2023-07-13T08:16:50;5.03;;;2.80;;
59062;SDS011;44851;45.648;9.004;2023-07-13T08:19:16;4.63;;;2.83;;
59062;SDS011;44851;45.648;9.004;2023-07-13T08:21:41;2.80;;;2.43;;
59062;SDS011;44851;45.648;9.004;2023-07-13T08:24:10;6.73;;;3.10;;
59062;SDS011;44851;45.648;9.004;2023-07-13T08:26:35;5.23;;;2.77;;
59062;SDS011;44851;45.648;9.004;2023-07-13T08:29:01;3.70;;;2.63;;
59062;SDS011;44851;45.648;9.004;2023-07-13T08:31:27;3.57;;;2.63;;
59062;SDS011;44851;45.648;9.004;2023-07-13T08:33:52;3.10;;;2.60;;
59062;SDS011;44851;45.648;9.004;2023-07-13T08:36:18;5.40;;;2.67;;
59062;SDS011;44851;45.648;9.004;2023-07-13T08:38:43;4.70;;;2.70;;
59062;SDS011;44851;45.648;9.004;2023-07-13T08:41:10;3.70;;;2.93;;
59062;SDS011;44851;45.648;9.004;2023-07-13T08:43:41;4.33;;;3.13;;
59062;SDS011;44851;45.648;9.004;2023-07-13T08:54:22;5.33;;;3.00;;
59062;SDS011;44851;45.648;9.004;2023-07-13T08:56:53;6.13;;;3.60;;
59062;SDS011;44851;45.648;9.004;2023-07-13T08:59:25;4.97;;;3.00;;
59062;SDS011;44851;45.648;9.004;2023-07-13T09:05:01;7.07;;;3.40;;
59062;SDS011;44851;45.648;9.004;2023-07-13T09:10:36;4.53;;;3.37;;
59062;SDS011;44851;45.648;9.004;2023-07-13T09:15:57;5.40;;;2.67;;
59062;SDS011;44851;45.648;9.004;2023-07-13T09:18:35;4.47;;;2.90;;
59062;SDS011;44851;45.648;9.004;2023-07-13T09:21:10;4.73;;;3.20;;
59062;SDS011;44851;45.648;9.004;2023-07-13T09:23:40;5.00;;;2.63;;
59062;SDS011;44851;45.648;9.004;2023-07-13T09:28:44;6.27;;;4.10;;
59062;SDS011;44851;45.648;9.004;2023-07-13T09:31:18;4.57;;;3.80;;
59062;SDS011;44851;45.648;9.004;2023-07-13T09:33:49;5.43;;;3.77;;
59062;SDS011;44851;45.648;9.004;2023-07-13T09:36:19;8.93;;;4.00;;
59062;SDS011;44851;45.648;9.004;2023-07-13T09:38:45;4.77;;;3.73;;
59062;SDS011;44851;45.648;9.004;2023-07-13T09:44:08;4.63;;;3.50;;
59062;SDS011;44851;45.648;9.004;2023-07-13T09:46:38;5.37;;;3.20;;
59062;SDS011;44851;45.648;9.004;2023-07-13T09:49:05;4.73;;;3.37;;
59062;SDS011;44851;45.648;9.004;2023-07-13T09:51:30;5.17;;;3.93;;
59062;SDS011;44851;45.648;9.004;2023-07-13T09:53:56;4.80;;;3.67;;
59062;SDS011;44851;45.648;9.004;2023-07-13T09:56:23;7.40;;;4.10;;
59062;SDS011;44851;45.648;9.004;2023-07-13T09:58:51;5.40;;;3.83;;
59062;SDS011;44851;45.648;9.004;2023-07-13T10:01:30;4.67;;;3.50;;
59062;SDS011;44851;45.648;9.004;2023-07-13T10:03:58;6.77;;;3.60;;
59062;SDS011;44851;45.648;9.004;2023-07-13T10:06:23;7.13;;;4.37;;
59062;SDS011;44851;45.648;9.004;2023-07-13T10:08:49;8.83;;;4.30;;
59062;SDS011;44851;45.648;9.004;2023-07-13T10:13:42;4.67;;;3.40;;
59062;SDS011;44851;45.648;9.004;2023-07-13T10:16:10;6.00;;;3.60;;
59062;SDS011;44851;45.648;9.004;2023-07-13T10:18:42;5.23;;;3.60;;
59062;SDS011;44851;45.648;9.004;2023-07-13T10:21:14;7.63;;;3.00;;
59062;SDS011;44851;45.648;9.004;2023-07-13T10:23:45;7.53;;;3.93;;
59062;SDS011;44851;45.648;9.004;2023-07-13T10:26:19;6.87;;;3.60;;
59062;SDS011;44851;45.648;9.004;2023-07-13T10:28:51;5.07;;;3.30;;
59062;SDS011;44851;45.648;9.004;2023-07-13T10:31:20;6.17;;;3.67;;
59062;SDS011;44851;45.648;9.004;2023-07-13T10:33:46;4.93;;;3.50;;
59062;SDS011;44851;45.648;9.004;2023-07-13T10:36:13;5.13;;;3.75;;
59062;SDS011;44851;45.648;9.004;2023-07-13T10:38:39;4.30;;;3.50;;
59062;SDS011;44851;45.648;9.004;2023-07-13T10:41:07;7.17;;;4.13;;
59062;SDS011;44851;45.648;9.004;2023-07-13T10:43:41;7.87;;;4.80;;
59062;SDS011;44851;45.648;9.004;2023-07-13T10:46:10;6.00;;;5.40;;
59062;SDS011;44851;45.648;9.004;2023-07-13T10:48:37;7.07;;;4.57;;
59062;SDS011;44851;45.648;9.004;2023-07-13T10:51:05;8.17;;;4.17;;
59062;SDS011;44851;45.648;9.004;2023-07-13T10:53:33;5.57;;;4.63;;
59062;SDS011;44851;45.648;9.004;2023-07-13T10:56:05;9.20;;;5.57;;
59062;SDS011;44851;45.648;9.004;2023-07-13T10:58:43;8.73;;;5.27;;
59062;SDS011;44851;45.648;9.004;2023-07-13T11:03:54;8.17;;;6.83;;
59062;SDS011;44851;45.648;9.004;2023-07-13T11:08:57;7.70;;;5.10;;
59062;SDS011;44851;45.648;9.004;2023-07-13T11:18:53;7.78;;;6.30;;
59062;SDS011;44851;45.648;9.004;2023-07-13T11:24:47;7.80;;;6.50;;
59062;SDS011;44851;45.648;9.004;2023-07-13T11:27:35;9.43;;;6.55;;
59062;SDS011;44851;45.648;9.004;2023-07-13T11:30:25;9.65;;;6.70;;
59062;SDS011;44851;45.648;9.004;2023-07-13T11:38:45;7.97;;;5.68;;
59062;SDS011;44851;45.648;9.004;2023-07-13T11:41:19;6.57;;;5.60;;
59062;SDS011;44851;45.648;9.004;2023-07-13T11:43:54;8.60;;;6.35;;
59062;SDS011;44851;45.648;9.004;2023-07-13T11:46:27;9.35;;;6.40;;
59062;SDS011;44851;45.648;9.004;2023-07-13T11:48:53;8.15;;;6.25;;
59062;SDS011;44851;45.648;9.004;2023-07-13T11:51:21;8.80;;;6.53;;
59062;SDS011;44851;45.648;9.004;2023-07-13T11:53:49;8.88;;;5.78;;
59062;SDS011;44851;45.648;9.004;2023-07-13T11:56:16;7.63;;;6.00;;
59062;SDS011;44851;45.648;9.004;2023-07-13T11:58:42;8.87;;;6.40;;
59062;SDS011;44851;45.648;9.004;2023-07-13T12:01:15;7.63;;;5.93;;
59062;SDS011;44851;45.648;9.004;2023-07-13T12:03:45;6.83;;;5.13;;
59062;SDS011;44851;45.648;9.004;2023-07-13T12:06:31;9.90;;;6.60;;
59062;SDS011;44851;45.648;9.004;2023-07-13T12:09:02;7.57;;;6.47;;
59062;SDS011;44851;45.648;9.004;2023-07-13T12:11:40;9.10;;;6.30;;
59062;SDS011;44851;45.648;9.004;2023-07-13T12:14:12;9.87;;;6.17;;
59062;SDS011;44851;45.648;9.004;2023-07-13T12:16:40;9.47;;;6.23;;
59062;SDS011;44851;45.648;9.004;2023-07-13T12:19:09;8.43;;;5.63;;
59062;SDS011;44851;45.648;9.004;2023-07-13T12:21:44;10.77;;;6.30;;
59062;SDS011;44851;45.648;9.004;2023-07-13T12:24:15;8.97;;;5.60;;
59062;SDS011;44851;45.648;9.004;2023-07-13T12:26:42;9.47;;;7.10;;
59062;SDS011;44851;45.648;9.004;2023-07-13T12:29:07;8.47;;;6.83;;
59062;SDS011;44851;45.648;9.004;2023-07-13T12:31:42;8.23;;;6.73;;
59062;SDS011;44851;45.648;9.004;2023-07-13T12:34:20;10.13;;;6.97;;
59062;SDS011;44851;45.648;9.004;2023-07-13T12:36:51;9.50;;;7.37;;
59062;SDS011;44851;45.648;9.004;2023-07-13T12:39:23;7.63;;;6.37;;
59062;SDS011;44851;45.648;9.004;2023-07-13T12:44:45;8.00;;;6.57;;
59062;SDS011;44851;45.648;9.004;2023-07-13T12:47:11;10.10;;;6.63;;
59062;SDS011;44851;45.648;9.004;2023-07-13T12:49:42;8.90;;;6.80;;
59062;SDS011;44851;45.648;9.004;2023-07-13T12:52:17;9.93;;;7.77;;
59062;SDS011;44851;45.648;9.004;2023-07-13T12:54:56;7.57;;;6.83;;
59062;SDS011;44851;45.648;9.004;2023-07-13T12:57:24;9.27;;;7.07;;
59062;SDS011;44851;45.648;9.004;2023-07-13T12:59:52;7.27;;;6.47;;
59062;SDS011;44851;45.648;9.004;2023-07-13T13:02:30;8.33;;;7.17;;
59062;SDS011;44851;45.648;9.004;2023-07-13T13:05:01;10.87;;;7.10;;
59062;SDS011;44851;45.648;9.004;2023-07-13T13:07:29;7.27;;;6.13;;
59062;SDS011;44851;45.648;9.004;2023-07-13T13:09:54;8.97;;;6.83;;
59062;SDS011;44851;45.648;9.004;2023-07-13T13:12:20;9.40;;;6.80;;
59062;SDS011;44851;45.648;9.004;2023-07-13T13:14:46;10.30;;;6.13;;
59062;SDS011;44851;45.648;9.004;2023-07-13T13:17:21;8.87;;;6.13;;
59062;SDS011;44851;45.648;9.004;2023-07-13T13:19:50;7.63;;;6.60;;
59062;SDS011;44851;45.648;9.004;2023-07-13T13:22:19;9.33;;;6.20;;
59062;SDS011;44851;45.648;9.004;2023-07-13T13:24:45;8.63;;;5.87;;
59062;SDS011;44851;45.648;9.004;2023-07-13T13:27:17;6.70;;;5.45;;
59062;SDS011;44851;45.648;9.004;2023-07-13T13:29:44;8.70;;;6.07;;
59062;SDS011;44851;45.648;9.004;2023-07-13T13:32:14;6.80;;;5.38;;
59062;SDS011;44851;45.648;9.004;2023-07-13T13:34:40;6.35;;;5.57;;
59062;SDS011;44851;45.648;9.004;2023-07-13T13:37:24;6.22;;;5.30;;
59062;SDS011;44851;45.648;9.004;2023-07-13T13:39:51;8.20;;;6.35;;
59062;SDS011;44851;45.648;9.004;2023-07-13T13:42:18;6.53;;;5.80;;
59062;SDS011;44851;45.648;9.004;2023-07-13T13:44:46;8.88;;;6.47;;
59062;SDS011;44851;45.648;9.004;2023-07-13T13:47:18;8.05;;;6.80;;
59062;SDS011;44851;45.648;9.004;2023-07-13T13:49:55;8.82;;;6.78;;
59062;SDS011;44851;45.648;9.004;2023-07-13T13:52:20;8.50;;;5.95;;
59062;SDS011;44851;45.648;9.004;2023-07-13T13:54:45;14.55;;;6.45;;
59062;SDS011;44851;45.648;9.004;2023-07-13T13:57:11;10.60;;;5.78;;
59062;SDS011;44851;45.648;9.004;2023-07-13T13:59:37;10.23;;;6.13;;
59062;SDS011;44851;45.648;9.004;2023-07-13T14:02:11;7.22;;;5.18;;
59062;SDS011;44851;45.648;9.004;2023-07-13T14:04:57;8.10;;;5.50;;
59062;SDS011;44851;45.648;9.004;2023-07-13T14:07:24;11.75;;;6.28;;
59062;SDS011;44851;45.648;9.004;2023-07-13T14:09:51;9.10;;;5.63;;
59062;SDS011;44851;45.648;9.004;2023-07-13T14:12:17;9.00;;;5.22;;
59062;SDS011;44851;45.648;9.004;2023-07-13T14:14:43;9.88;;;5.40;;
59062;SDS011;44851;45.648;9.004;2023-07-13T14:17:14;14.07;;;5.75;;
59062;SDS011;44851;45.648;9.004;2023-07-13T14:19:49;7.20;;;5.45;;
59062;SDS011;44851;45.648;9.004;2023-07-13T14:22:19;7.75;;;5.30;;
59062;SDS011;44851;45.648;9.004;2023-07-13T14:24:45;8.07;;;5.22;;
59062;SDS011;44851;45.648;9.004;2023-07-13T14:27:11;6.45;;;4.72;;
59062;SDS011;44851;45.648;9.004;2023-07-13T14:29:37;8.20;;;5.18;;
59062;SDS011;44851;45.648;9.004;2023-07-13T14:32:03;6.05;;;4.88;;
59062;SDS011;44851;45.648;9.004;2023-07-13T14:34:31;24.70;;;6.45;;
59062;SDS011;44851;45.648;9.004;2023-07-13T14:36:56;15.68;;;6.10;;
59062;SDS011;44851;45.648;9.004;2023-07-13T14:39:22;6.20;;;4.57;;
59062;SDS011;44851;45.648;9.004;2023-07-13T14:41:53;8.63;;;4.65;;
59062;SDS011;44851;45.648;9.004;2023-07-13T14:44:21;9.43;;;5.47;;
59062;SDS011;44851;45.648;9.004;2023-07-13T14:46:51;6.13;;;4.35;;
59062;SDS011;44851;45.648;9.004;2023-07-13T14:51:51;5.97;;;4.65;;
59062;SDS011;44851;45.648;9.004;2023-07-13T14:54:17;4.82;;;4.30;;
59062;SDS011;44851;45.648;9.004;2023-07-13T14:56:42;9.43;;;5.50;;
59062;SDS011;44851;45.648;9.004;2023-07-13T14:59:08;6.75;;;4.60;;
59062;SDS011;44851;45.648;9.004;2023-07-13T15:01:34;4.85;;;4.40;;
59062;SDS011;44851;45.648;9.004;2023-07-13T15:04:01;6.10;;;4.32;;
59062;SDS011;44851;45.648;9.004;2023-07-13T15:06:27;5.40;;;4.60;;
59062;SDS011;44851;45.648;9.004;2023-07-13T15:08:54;6.25;;;4.28;;
59062;SDS011;44851;45.648;9.004;2023-07-13T15:11:20;4.88;;;4.05;;
59062;SDS011;44851;45.648;9.004;2023-07-13T15:13:46;4.88;;;4.40;;
59062;SDS011;44851;45.648;9.004;2023-07-13T15:16:23;10.63;;;4.78;;
59062;SDS011;44851;45.648;9.004;2023-07-13T15:18:50;5.13;;;4.63;;
59062;SDS011;44851;45.648;9.004;2023-07-13T15:21:19;4.93;;;4.07;;
59062;SDS011;44851;45.648;9.004;2023-07-13T15:23:47;5.47;;;4.18;;
59062;SDS011;44851;45.648;9.004;2023-07-13T15:26:13;5.43;;;4.55;;
59062;SDS011;44851;45.648;9.004;2023-07-13T15:28:43;6.22;;;4.70;;
59062;SDS011;44851;45.648;9.004;2023-07-13T15:31:20;6.50;;;4.03;;
59062;SDS011;44851;45.648;9.004;2023-07-13T15:33:48;6.07;;;4.00;;
59062;SDS011;44851;45.648;9.004;2023-07-13T15:36:19;5.30;;;4.45;;
59062;SDS011;44851;45.648;9.004;2023-07-13T15:38:46;8.48;;;4.20;;
59062;SDS011;44851;45.648;9.004;2023-07-13T15:41:21;5.47;;;3.97;;
59062;SDS011;44851;45.648;9.004;2023-07-13T15:43:52;8.02;;;4.53;;
59062;SDS011;44851;45.648;9.004;2023-07-13T15:46:19;5.32;;;4.15;;